• Join FlightAware (Why Join?)
  • Login
  • US Flag 
03:00AM EDT


 

Airport Tracker/Info


-or-


 

Live Flight TrackerFlight Track Log ✈ FLG3729 ✈ 13-May-2013 ✈ KALB - KDTW

Flight Track Log - Related Links

Times and Time Zones

All times are in EDT time to prevent confusion due to time zone crossing. See the FLG3729 flight status page for this flight to view local times or setup timezone preferences in your user account.

Time Position Orientation Groundspeed Altitude Reporting Facility
EDT Latitude Longitude Course Direction KTS MPH feet Rate Location/Type
05:58AM 42.7672 -73.8061 283° West 154 177 1,300  Level Boston Center
05:59AM 42.8106 -73.8494 324° Northwest 184 212 4,000 2,280 Climbing Boston Center
06:00AM 42.8433 -73.9011 311° West 218 251 6,100 2,400 Climbing Boston Center
06:01AM 42.8242 -74.2688 281° West  Level FlightAware Approximate
06:01AM 42.8861 -73.9675 311° West 234 269 8,800  Level Boston Center
06:02AM 42.8426 -74.3889 283° West  Level FlightAware Approximate
06:02AM 42.9414 -74.0483 313° West 242 278 11,000  Level Boston Center
06:03AM 42.8626 -74.5086 283° West  Level FlightAware Approximate
06:03AM 42.9756 -74.1314 299° West 271 312 12,700  Level Boston Center
06:04AM 42.9883 -74.2567 278° West 288 331 14,400 1,500 Climbing Boston Center
06:05AM 42.9972 -74.3419 278° West 320 368 15,800 1,740 Climbing Boston Center
06:06AM 43.0111 -74.4986 277° West 330 380 18,300 2,040 Climbing Boston Center
06:07AM 43.0253 -74.6439 278° West 330 380 20,400 1,680 Climbing Boston Center
06:08AM 43.0353 -74.7667 276° West 330 380 21,700 1,320 Climbing Boston Center
06:09AM 43.0472 -74.8950 277° West 335 386 23,100 1,200 Climbing Boston Center
06:10AM 43.0611 -75.0206 279° West 335 386 24,200 1,080 Climbing Boston Center
06:11AM 43.0728 -75.1461 277° West 335 386 25,300 1,020 Climbing Boston Center
06:12AM 43.0842 -75.2744 277° West 335 386 26,300 900 Climbing Boston Center
06:13AM 43.0956 -75.4058 277° West 340 391 27,100 720 Climbing Boston Center
06:14AM 43.1067 -75.5344 277° West 340 391 27,800 420 Climbing Boston Center
06:15AM 43.1161 -75.6431 277° West 345 397 28,000 60 Climbing Boston Center
06:16AM 43.1264 -75.7886 276° West 355 409 28,000  Level Boston Center
06:17AM 43.1389 -75.9289 277° West 361 415 28,000  Level Boston Center
06:19AM 43.1581 -76.2369 275° West 371 427 28,000  Level Cleveland Center
06:20AM 43.1467 -76.3800 264° West 371 427 28,000  Level Cleveland Center
06:21AM 43.1347 -76.5144 263° West 371 427 28,000  Level Cleveland Center
06:22AM 43.1208 -76.6519 262° West 371 427 28,000  Level Cleveland Center
06:23AM 43.1092 -76.8036 264° West 371 427 28,000  Level Cleveland Center
06:24AM 43.0950 -76.9439 262° West 371 427 28,000  Level Cleveland Center
06:25AM 43.0844 -77.0781 264° West 371 427 28,000  Level Cleveland Center
06:26AM 43.0700 -77.2181 262° West 371 427 28,000  Level Cleveland Center
06:27AM 43.0592 -77.3522 264° West 371 427 28,000  Level Cleveland Center
06:28AM 43.0442 -77.4894 262° West 371 427 28,000  Level Cleveland Center
06:29AM 43.0328 -77.6150 263° West 371 427 28,000  Level Cleveland Center
06:30AM 43.0194 -77.7519 262° West 371 427 28,000  Level Cleveland Center
06:31AM 43.0061 -77.8917 263° West 371 427 28,000  Level Cleveland Center
06:32AM 42.9928 -78.0314 263° West 371 427 28,000  Level Cleveland Center
06:33AM 42.9792 -78.1711 262° West 371 427 28,000  Level Cleveland Center
06:34AM 42.9653 -78.3164 263° West 371 427 28,000  Level Cleveland Center
06:35AM 42.9492 -78.4558 261° West 371 427 28,000  Level Cleveland Center
06:36AM 42.9350 -78.6011 262° West 376 433 28,000  Level Cleveland Center
06:37AM 42.9167 -78.7519 261° West 394 453 28,000  Level Cleveland Center
06:38AM 42.8939 -78.9028 258° West 399 459 28,000  Level Cleveland Center
06:39AM 42.8731 -79.0533 259° West 404 465 28,000  Level Cleveland Center
06:40AM 42.8481 -79.2097 258° West 416 479 28,000  Level Cleveland Center
06:41AM 42.8269 -79.3631 259° West 416 479 28,000  Level Cleveland Center
06:42AM 42.8033 -79.5219 259° West 416 479 28,000  Level Cleveland Center
06:43AM 42.7817 -79.6753 259° West 421 484 28,000  Level Cleveland Center
06:44AM 42.7558 -79.8339 258° West 426 490 28,000  Level Cleveland Center
06:45AM 42.7422 -80.0122 264° West 435 501 28,000  Level Cleveland Center
06:46AM 42.7389 -80.1733 268° West 435 501 28,000  Level Cleveland Center
06:47AM 42.7308 -80.3317 266° West 435 501 28,000  Level Cleveland Center
06:48AM 42.7250 -80.4956 267° West 440 506 28,000 -60 Level Cleveland Center
06:49AM 42.7164 -80.6539 266° West 435 501 27,900 -360 Descending Cleveland Center
06:50AM 42.7081 -80.8233 266° West 435 501 27,300 -600 Descending Cleveland Center
06:51AM 42.6972 -80.9672 264° West 440 506 26,800 -600 Descending Cleveland Center
06:52AM 42.6778 -81.1311 261° West 440 506 26,100 -900 Descending Cleveland Center
06:53AM 42.6581 -81.2947 261° West 445 512 25,100 -1,020 Descending Cleveland Center
06:54AM 42.6403 -81.4639 262° West 458 527 24,100 -1,380 Descending Cleveland Center
06:55AM 42.6222 -81.6272 262° West 448 516 22,400 -1,860 Descending Cleveland Center
06:56AM 42.5997 -81.7989 260° West 428 493 20,400 -1,980 Descending Cleveland Center
06:57AM 42.5814 -81.9481 261° West 415 478 18,500 -1,860 Descending Cleveland Center
06:58AM 42.5628 -82.0886 260° West 403 464 16,700 -1,800 Descending Cleveland Center
06:59AM 42.5464 -82.2261 261° West 390 449 15,000 -1,740 Descending Cleveland Center
07:00AM 42.5411 -82.2964 264° West 363 418 14,100 -1,620 Descending Cleveland Center
07:00AM 42.5319 -82.3611 259° West 373 429 13,400 -1,620 Descending Cleveland Center
07:01AM 42.5269 -82.4061 261° West 349 402 12,800 -1,320 Descending Cleveland Center
07:01AM 42.5156 -82.4789 258° West 350 403 12,100 -840 Descending Cleveland Center
07:02AM 42.5106 -82.5183 260° West 284 327 12,000 -300 Descending Cleveland Center
07:02AM 42.4950 -82.5769 250° West 312 359 11,800 -720 Descending Cleveland Center
07:03AM 42.4881 -82.6133 256° West 267 307 11,300 -1,200 Descending Cleveland Center
07:03AM 42.4619 -82.6714 239° Southwest 286 329 10,600 -1,080 Descending Cleveland Center
07:04AM 42.4486 -82.7189 249° West 274 315 10,100 -1,200 Descending Cleveland Center
07:04AM 42.4311 -82.7633 242° Southwest 281 323 9,400 -1,620 Descending Cleveland Center
07:05AM 42.4156 -82.8106 246° West 271 312 8,500 -1,620 Descending Cleveland Center
07:05AM 42.3981 -82.8522 240° Southwest 270 311 7,800 -1,260 Descending Cleveland Center
07:06AM 42.3886 -82.9108 258° West 247 284 7,100 -840 Descending Cleveland Center
07:06AM 42.3839 -82.9417 258° West 259 298 7,000 -180 Descending Cleveland Center
07:07AM 42.3761 -83.0117 261° West 248 285 6,900 -540 Descending Cleveland Center
07:07AM 42.3694 -83.0339 248° West 253 291 6,500 -1,620 Descending Cleveland Center
07:08AM 42.3617 -83.1039 261° West 250 288 5,300 -1,440 Descending Cleveland Center
07:08AM 42.3569 -83.1261 254° West 253 291 5,100 -240 Descending Cleveland Center
07:09AM 42.3497 -83.1792 260° West 194 223 5,100 -120 Level Cleveland Center
07:09AM 42.3428 -83.2014 247° West 244 281 5,000 -840 Descending Cleveland Center
07:10AM 42.3253 -83.2372 237° Southwest 150 173 4,300 -1,320 Descending Cleveland Center
07:11AM 42.2972 -83.2753 225° Southwest 136 157 2,800 -1,500 Descending Cleveland Center